Tiempo atmosférico en la estación meteorológica de Bossòst, Lleida (725 m.)



Fecha
DESCASC
Temp. máxima en grados centígrados (hora)
DESCASC
Temp. mínima en grados centígrados (hora)
DESCASC
Temp. media en grados centígrados
DESCASC
Racha de viento máxima en m/sg (hora)
DESCASC
Velocidad máxima media en intervalos de 10 minutos(hora)
DESCASC
Precipitaciones diarias en mm
DESCASC
Precipitaciones de 00:00 a 06:00 en mm
DESCASC
Precipitaciones de 06:00 a 12:00 en mm
DESCASC
Precipitaciones de 12:00 a 18:00 en mm
DESCASC
Precipitaciones de 18:00 a 24:00 en mm
DESCASC
22-01-2020 7.8 (13:50) -1.5 (00:20) 3.2 8.61 (22:10) 5.83 (22:10) -- -- -- -- --
21-01-2020 2.4 (16:00) -2.5 (00:20) 0 2.78 (23:10) 1.39 (01:30) -- -- -- -- --
20-01-2020 4.7 (14:40) -2.9 (06:20) 0.9 4.17 (00:20) 2.22 (00:30) -- -- -- -- --
19-01-2020 4.7 (13:10) 0.7 (00:00) 2.7 7.22 (15:10) 3.89 (15:20) -- -- -- -- --
18-01-2020 10.5 (15:00) -1 (-00:0) 4.8 6.67 (11:20) 4.44 (11:20) -- -- -- -- --
17-01-2020 13.4 (02:40) -0.6 (-00:0) 6.4 11.11 (05:00) 6.67 (05:00) -- -- -- -- --
16-01-2020 15.4 (14:40) -2.2 (-00:0) 6.6 11.67 (23:30) 6.39 (20:20) -- -- -- -- --
15-01-2020 15.8 (14:50) -1.1 (-00:0) 7.4 5.83 (22:00) 4.17 (22:10) -- -- -- -- --
14-01-2020 15.9 (14:50) -2.2 (-00:0) 6.8 12.22 (22:30) 6.67 (22:30) -- -- -- -- --
13-01-2020 12.7 (14:10) -3.6 (-00:0) 4.5 5 (19:00) 3.33 (17:30) -- -- -- -- --
12-01-2020 9.9 (13:50) -2.7 (-00:0) 3.6 6.67 (03:10) 3.89 (03:00) -- -- -- -- --
11-01-2020 7.5 (14:10) -2.7 (-00:0) 2.4 6.67 (18:00) 5 (18:00) -- -- -- -- --
10-01-2020 6.7 (00:00) 0.2 (00:00) 3.4 6.67 (01:30) 3.33 (01:00) -- -- -- -- --
09-01-2020 16.7 (14:50) 1.2 (00:00) 9 8.61 (22:00) 4.72 (21:20) -- -- -- -- --
08-01-2020 15.3 (14:40) -1 (-00:0) 7.2 6.67 (09:50) 4.17 (09:50) -- -- -- -- --
07-01-2020 10.4 (14:50) -3.3 (-00:0) 3.5 4.17 (19:50) 2.5 (19:50) -- -- -- -- --
06-01-2020 16.5 (14:30) -1 (-00:0) 7.8 8.61 (23:00) 5.56 (23:00) -- -- -- -- --
05-01-2020 12.2 (14:30) -3.3 (-00:0) 4.4 6.11 (19:20) 3.61 (19:20) -- -- -- -- --
04-01-2020 10.9 (14:30) -0.6 (-00:0) 5.1 6.11 (23:50) 4.44 (23:50) -- -- -- -- --
03-01-2020 10.5 (15:00) -0.7 (-00:0) 4.9 4.17 (09:10) 2.78 (08:50) -- -- -- -- --
02-01-2020 15.7 (14:10) -2.6 (-00:0) 6.5 5.28 (18:20) 3.61 (19:00) -- -- -- -- --
01-01-2020 8.7 (14:30) -3.9 (-00:0) 2.4 6.11 (20:00) 2.5 (19:50) -- -- -- -- --
31-12-2019 12.8 (14:30) 0.1 (00:00) 6.5 5 (00:50) 3.61 (00:40) -- -- -- -- --
30-12-2019 -- (--) -- (--) -- -- (--) -- (--) -- -- -- -- --
29-12-2019 15.6 (13:50) 2.1 (00:00) 8.9 6.39 (03:10) 4.17 (03:00) -- -- -- -- --
28-12-2019 14.7 (14:10) -0.1 (00:00) 7.3 6.39 (19:40) 4.17 (19:40) -- -- -- -- --
27-12-2019 11.9 (14:10) -1.9 (-00:0) 5 7.5 (03:00) 5.28 (03:00) -- -- -- -- --
26-12-2019 10.4 (13:10) 2.8 (00:00) 6.6 5 (03:50) 3.33 (21:40) -- -- -- -- --
25-12-2019 14.5 (14:10) 2.4 (00:00) 8.5 6.39 (01:40) 4.44 (01:40) -- -- -- -- --

Gráficas

Temp. máximas Temp. mínimas Temp. medias Precipitaciones Rachas de viento máximas Velocidades máximas media en intervalos de 10 minutos

Datos horarios

Fecha y hora oficial Temperatura (ºC) Velocidad del viento (km/h) Dirección del viento Racha (km/h) Dirección de racha Precipitación (mm) Presión (hPa) Tendencia (hPa) Humedad (%)
2020-01-23 23:00:00 4.5 11 Sudoeste 17 Sur 0 -- -- 80
2020-01-23 22:00:00 6.1 14 Sudoeste 22 Sur 0 -- -- 67
2020-01-23 21:00:00 5.9 12 Sur 25 Sudoeste 0 -- -- 70
2020-01-23 20:00:00 5.8 15 Sudoeste 29 Sudoeste 0 -- -- 75
2020-01-23 19:00:00 6.1 20 Sudoeste 31 Sur 0 -- -- 75
2020-01-23 18:00:00 8 15 Sur 22 Sur 0 -- -- 70
2020-01-23 17:00:00 9.6 10 Sur 26 Sudoeste 0 -- -- 64
2020-01-23 16:00:00 9.4 0 Calma 12 Norte 0 -- -- 85
2020-01-23 15:00:00 9.7 4 Nordeste 8 Norte 0 -- -- 79
2020-01-23 14:00:00 9 2 Sur 10 Nordeste 0 -- -- 82
2020-01-23 13:00:00 8.4 5 Norte 17 Nordeste 0 -- -- 86
2020-01-23 12:00:00 7.3 2 Norte 22 Sudoeste 0 -- -- 91
2020-01-23 11:00:00 6.4 6 Nordeste 27 Sudoeste 0 -- -- 91
2020-01-23 10:00:00 4.5 0 Calma 10 Nordeste 0 -- -- 98
2020-01-23 09:00:00 4.3 4 Sur 21 Sudoeste 0 -- -- 98
2020-01-23 08:00:00 3.8 6 Sudoeste 20 Sudoeste 0 -- -- 100
2020-01-23 07:00:00 3.4 3 Sur 11 Sudoeste 0 -- -- 100
2020-01-23 06:00:00 2.9 4 Sudoeste 6 Sur 0 -- -- 100
2020-01-23 05:00:00 2.7 4 Sudoeste 6 Sudoeste 0 -- -- 100
2020-01-23 04:00:00 2.7 2 Oeste 6 Sudoeste 0 -- -- 100
2020-01-23 03:00:00 2.3 0 Calma 5 Oeste 0 -- -- 98
2020-01-23 02:00:00 3 3 Oeste 17 Nordeste 0 -- -- 98
2020-01-23 01:00:00 3.4 13 Sudoeste 24 Sudoeste 0.2 -- -- 97
2020-01-23 00:00:00 2.8 3 Este 10 Nordeste 0 -- -- 98
2020-01-22 23:00:00 3.2 3 Sur 31 Sudoeste 0 -- -- 94
2020-01-22 22:00:00 2.8 17 Sur 26 Sudoeste 0 -- -- 95
2020-01-22 21:00:00 2.3 12 Sudoeste 19 Sudoeste 0 -- -- 98
2020-01-22 20:00:00 2.2 4 Sudoeste 18 Sudoeste 0 -- -- 97
2020-01-22 19:00:00 2.3 8 Sudoeste 18 Sudoeste 0 -- -- 96
2020-01-22 18:00:00 2.9 15 Sudoeste 21 Sudoeste 0 -- -- 95
2020-01-22 17:00:00 4.1 4 Sudoeste 15 Sudoeste 0 -- -- 96
2020-01-22 16:00:00 4.9 12 Sudoeste 17 Sudoeste 0 -- -- 95
2020-01-22 15:00:00 6.1 12 Sudoeste 23 Sudoeste 0 -- -- 91
2020-01-22 14:00:00 7.7 15 Sudoeste 23 Sudoeste 0 -- -- 81
2020-01-22 13:00:00 6.7 0 Calma 7 Sur 0 -- -- 89
2020-01-22 12:00:00 4.8 3 Norte 19 Sudoeste 0 -- -- 93
2020-01-22 11:00:00 2.1 3 Sur 6 Norte 0 -- -- 97
2020-01-22 10:00:00 1.9 8 Sur 21 Sudoeste 0 -- -- 99
2020-01-22 09:00:00 0.6 2 Oeste 13 Sur 0 -- -- 98
2020-01-22 08:00:00 0.8 6 Sur 14 Sudoeste 0 -- -- 99
2020-01-22 07:00:00 0.4 5 Sur 13 Sudoeste 0 -- -- 99
2020-01-22 06:00:00 0.1 0 Calma 6 Nordeste 0 -- -- 99
2020-01-22 05:00:00 0.2 0 Calma 8 Nordeste 0 -- -- 98
2020-01-22 04:00:00 0.5 4 Sur 16 Sudoeste 0 -- -- 97
2020-01-22 03:00:00 0.6 14 Sudoeste 22 Sudoeste 0 -- -- 94
2020-01-22 02:00:00 -0.6 2 Sudeste 8 Sudoeste 0 -- -- 93
2020-01-22 01:00:00 -1.2 2 Nordeste 12 Sudoeste 0 -- -- 94
2020-01-22 00:00:00 -1.4 0 Calma 10 Sudoeste 0 -- -- 93
2020-01-21 23:00:00 -1.2 0 Calma 6 Norte 0 -- -- 92
2020-01-21 22:00:00 -0.8 2 Sudoeste 9 Sudoeste 0 -- -- 91
2020-01-21 21:00:00 -1 2 Sudoeste 8 Sudoeste 0 -- -- 90
2020-01-21 20:00:00 -0.3 3 Sur 5 Sur 0 -- -- 88
2020-01-21 19:00:00 0.7 2 Sudeste 8 Sudoeste 0 -- -- 83
2020-01-21 18:00:00 1.3 3 Oeste 5 Sudeste 0 -- -- 81
2020-01-21 17:00:00 2.4 0 Calma 4 Norte 0 -- -- 75
2020-01-21 16:00:00 2.4 2 Norte 8 Nordeste 0 -- -- 73
2020-01-21 15:00:00 2.2 3 Nordeste 10 Nordeste 0 -- -- 74
2020-01-21 14:00:00 2.1 5 Nordeste 9 Nordeste 0 -- -- 73
2020-01-21 13:00:00 1.8 0 Calma 9 Nordeste 0 -- -- 71
2020-01-21 12:00:00 1.1 2 Nordeste 9 Norte 0 -- -- 74
2020-01-21 11:00:00 0.3 4 Nordeste 8 Norte 0 -- -- 83
2020-01-21 10:00:00 -0.5 3 Oeste 6 Sur 0 -- -- 85
2020-01-21 09:00:00 -1.5 2 Oeste 6 Nordeste 0 -- -- 90
2020-01-21 08:00:00 -1.7 0 Calma 6 Sudeste 0 -- -- 91
2020-01-21 07:00:00 -2 0 Calma 3 Nordeste 0 -- -- 92
2020-01-21 06:00:00 -1.5 0 Calma 4 Oeste 0 -- -- 91
2020-01-21 05:00:00 -1.7 0 Calma 3 Sur 0 -- -- 91
2020-01-21 04:00:00 -1.9 0 Calma 4 Oeste 0 -- -- 90
2020-01-21 03:00:00 -2 0 Calma 6 Sudoeste 0 -- -- 90
2020-01-21 02:00:00 -2 3 Sur 9 Sudoeste 0 -- -- 89
2020-01-21 01:00:00 -2.4 0 Calma 5 Sur 0 -- -- 93
2020-01-21 00:00:00 -2.3 3 Oeste 6 Norte 0 -- -- 90
2020-01-20 23:00:00 -2 0 Calma 6 Sudoeste 0 -- -- 91
2020-01-20 22:00:00 -2.4 6 Sudoeste 9 Sudoeste 0 -- -- 92
2020-01-20 21:00:00 -1.9 0 Calma 6 Sudoeste 0 -- -- 90
2020-01-20 20:00:00 -1.6 2 Oeste 4 Sur 0 -- -- 90
2020-01-20 19:00:00 -0.8 0 Calma 4 Sudoeste 0 -- -- 85
2020-01-20 18:00:00 0.9 0 Calma 5 Sudoeste 0 -- -- 81
2020-01-20 17:00:00 0.8 0 Calma 7 Sudoeste 0 -- -- 76
2020-01-20 16:00:00 1.6 4 Sudoeste 8 Sur 0 -- -- 70
2020-01-20 15:00:00 4.3 4 Nordeste 13 Norte 0 -- -- 53
2020-01-20 14:00:00 4 4 Nordeste 6 Norte 0 -- -- 50
2020-01-20 13:00:00 1.2 2 Nordeste 8 Norte 0 -- -- 62
2020-01-20 12:00:00 0 5 Nordeste 8 Nordeste 0 -- -- 75
2020-01-20 11:00:00 -0.7 0 Calma 5 Norte 0 -- -- 80
2020-01-20 10:00:00 -1.5 4 Nordeste 5 Nordeste 0 -- -- 85
2020-01-20 09:00:00 -2.1 0 Calma 5 Norte 0 -- -- 87
2020-01-20 08:00:00 -2.1 3 Nordeste 5 Este 0 -- -- 88
2020-01-20 07:00:00 -2.8 0 Calma 2 Norte 0 -- -- 93
2020-01-20 06:00:00 -2.4 0 Calma 4 Sur 0 -- -- 89
2020-01-20 05:00:00 -1.5 0 Calma 4 Nordeste 0 -- -- 84
2020-01-20 04:00:00 -1.1 0 Calma 5 Nordeste 0 -- -- 83
2020-01-20 03:00:00 -0.4 3 Nordeste 8 Nordeste 0 -- -- 75
2020-01-20 02:00:00 -0.2 3 Nordeste 6 Norte 0 -- -- 78
2020-01-20 01:00:00 0.1 0 Calma 15 Norte 0 -- -- 78
2020-01-20 00:00:00 0.8 3 Nordeste 11 Nordeste 0 -- -- 71
2020-01-19 23:00:00 0.8 0 Calma 6 Norte 0 -- -- 78
2020-01-19 22:00:00 1 2 Oeste 6 Este 0 -- -- 78
2020-01-19 21:00:00 1.3 0 Calma 5 Oeste 0 -- -- 70
2020-01-19 20:00:00 1.3 2 Sur 7 Norte 0 -- -- 69
2020-01-19 19:00:00 1.8 3 Norte 21 Norte 0 -- -- 66
2020-01-19 18:00:00 2.4 6 Norte 16 Nordeste 0 -- -- 65
2020-01-19 17:00:00 3.3 4 Norte 13 Nordeste 0 -- -- 62
2020-01-19 16:00:00 3.4 8 Norte 26 Norte 0 -- -- 58
2020-01-19 15:00:00 4.2 13 Norte 24 Este 0 -- -- 61
2020-01-19 14:00:00 4.2 10 Norte 24 Norte 0 -- -- 71
2020-01-19 13:00:00 4.5 13 Nordeste 21 Norte 0 -- -- 78
2020-01-19 12:00:00 3.7 6 Norte 15 Norte 0 -- -- 87
2020-01-19 11:00:00 3.1 6 Nordeste 11 Nordeste 0 -- -- 94
2020-01-19 10:00:00 2.6 0 Calma 12 Nordeste 0 -- -- 96
2020-01-19 09:00:00 2.2 3 Norte 6 Nordeste 0 -- -- 97
2020-01-19 08:00:00 2.5 2 Norte 8 Sudeste 0 -- -- 97
2020-01-19 07:00:00 2.6 4 Nordeste 10 Nordeste 0 -- -- 96
2020-01-19 06:00:00 3 2 Norte 16 Norte 0 -- -- 95
2020-01-19 05:00:00 3 6 Nordeste 13 Nordeste 0 -- -- 96
2020-01-19 04:00:00 2.9 4 Nordeste 11 Este 0 -- -- 97
2020-01-19 03:00:00 1.9 0 Calma 5 Nordeste 0 -- -- 97
2020-01-19 02:00:00 1 0 Calma 4 Nordeste 0 -- -- 97
2020-01-19 01:00:00 1.3 0 Calma 5 Oeste 0 -- -- 95
2020-01-19 00:00:00 1.2 0 Calma 5 Oeste 0 -- -- 97
2020-01-18 23:00:00 0.8 2 Sur 5 Nordeste 0 -- -- 96
2020-01-18 22:00:00 0.6 0 Calma 7 Norte 0 -- -- 96
2020-01-18 21:00:00 0.1 3 Sur 8 Sur 0 -- -- 95
2020-01-18 20:00:00 0.2 0 Calma 6 Sudoeste 0 -- -- 95
2020-01-18 19:00:00 1.2 4 Sudoeste 9 Sudoeste 0 -- -- 93
2020-01-18 18:00:00 2.3 3 Sur 9 Oeste 0 -- -- 89
2020-01-18 17:00:00 3.8 6 Sudoeste 12 Sudoeste 0 -- -- 85
2020-01-18 16:00:00 5.3 5 Sudoeste 15 Sudoeste 0 -- -- 77
2020-01-18 15:00:00 10.5 4 Nordeste 11 Sudoeste 0 -- -- 59
2020-01-18 14:00:00 9 4 Nordeste 8 Este 0 -- -- 58
2020-01-18 13:00:00 6.6 2 Nordeste 12 Nordeste 0.2 -- -- 70
2020-01-18 12:00:00 5.5 5 Este 24 Sudoeste 0 -- -- 71
2020-01-18 11:00:00 2.9 15 Sudoeste 21 Sudoeste 0 -- -- 80
2020-01-18 10:00:00 0.9 8 Sudoeste 12 Sudoeste 0 -- -- 91
2020-01-18 09:00:00 0.4 6 Sudoeste 20 Sudoeste 0 -- -- 93
2020-01-18 08:00:00 0 8 Sudoeste 13 Sudoeste 0 -- -- 95
2020-01-18 07:00:00 -0.5 2 Norte 13 Sudoeste 0 -- -- 96
2020-01-18 06:00:00 -1 2 Sur 7 Sur 0 -- -- 96
2020-01-18 05:00:00 -0.4 7 Sudoeste 15 Sudoeste 0 -- -- 95
2020-01-18 04:00:00 -0.2 9 Sur 18 Sudoeste 0 -- -- 93
2020-01-18 03:00:00 -0.4 12 Sudoeste 17 Sudoeste 0 -- -- 97
2020-01-18 02:00:00 -0.9 7 Sur 10 Sudoeste 0 -- -- 98
2020-01-18 01:00:00 -0.6 6 Sur 10 Sudoeste 0 -- -- 99
2020-01-18 00:00:00 -0.3 9 Sudoeste 13 Sudoeste 0 -- -- 99
2020-01-17 23:00:00 -0.5 0 Calma 8 Sudoeste 0 -- -- 99
2020-01-17 22:00:00 0.4 3 Sur 6 Sudoeste 0 -- -- 99
2020-01-17 21:00:00 1.5 0 Calma 4 Sur 0 -- -- 100
2020-01-17 20:00:00 1.7 2 Sudeste 7 Este 0 -- -- 98
2020-01-17 19:00:00 1.8 0 Calma 5 Noroeste 0 -- -- 98
2020-01-17 18:00:00 2.7 0 Calma 5 Sur 0 -- -- 96
2020-01-17 17:00:00 4 0 Calma 7 Sudeste 0 -- -- 93
2020-01-17 16:00:00 3.9 4 Sur 19 Este 0 -- -- 90
2020-01-17 15:00:00 3.9 7 Nordeste 23 Nordeste 0 -- -- 91
2020-01-17 14:00:00 4.5 10 Norte 23 Norte 0 -- -- 92
2020-01-17 13:00:00 5.8 9 Norte 25 Norte 0 -- -- 86
2020-01-17 12:00:00 6.7 12 Nordeste 28 Norte 0 -- -- 81
2020-01-17 11:00:00 5.2 0 Calma 9 Sudeste 0 -- -- 80
2020-01-17 10:00:00 2.9 0 Calma 6 Sudoeste 0 -- -- 84
2020-01-17 09:00:00 2.5 2 Nordeste 7 Sudoeste 0 -- -- 83
2020-01-17 08:00:00 4.2 0 Calma 13 Sudoeste 0 -- -- 75
2020-01-17 07:00:00 5.5 9 Sudoeste 17 Sudoeste 0 -- -- 70
2020-01-17 06:00:00 9.6 4 Sudoeste 37 Sudoeste 0 -- -- 55
2020-01-17 05:00:00 12.2 24 Sudoeste 40 Sudoeste 0 -- -- 43
2020-01-17 04:00:00 10 6 Sudoeste 20 Sudoeste 0 -- -- 53
2020-01-17 03:00:00 12.2 10 Sudoeste 38 Sudoeste 0 -- -- 44
2020-01-17 02:00:00 12.1 11 Sudoeste 34 Sudoeste 0 -- -- 45
2020-01-17 01:00:00 12.3 8 Sur 22 Oeste 0 -- -- 45
2020-01-17 00:00:00 11.5 15 Sur 42 Sudoeste 0 -- -- 49
2020-01-16 23:00:00 9.2 11 Sudoeste 32 Sudoeste 0 -- -- 54
2020-01-16 22:00:00 10.5 14 Sudoeste 27 Sudoeste 0 -- -- 50
2020-01-16 21:00:00 11.1 18 Sudoeste 41 Sudoeste 0 -- -- 49
2020-01-16 20:00:00 11.2 8 Sudoeste 34 Sudoeste 0 -- -- 47
2020-01-16 19:00:00 12.3 21 Sudoeste 37 Oeste 0 -- -- 46
2020-01-16 18:00:00 7.1 15 Sudoeste 23 Sudoeste 0 -- -- 61
2020-01-16 17:00:00 6.9 5 Sur 14 Oeste 0 -- -- 58
2020-01-16 16:00:00 7.7 3 Sudoeste 13 Sudoeste 0 -- -- 56
2020-01-16 15:00:00 15.1 3 Sudoeste 9 Sudoeste 0 -- -- 37
2020-01-16 14:00:00 13.9 3 Noroeste 9 Nordeste 0 -- -- 31
2020-01-16 13:00:00 12 3 Este 7 Sur 0 -- -- 38
2020-01-16 12:00:00 6.2 3 Este 11 Sudoeste 0 -- -- 54
2020-01-16 11:00:00 2.6 6 Nordeste 12 Sudeste 0 -- -- 66
2020-01-16 10:00:00 1.1 2 Sudeste 8 Nordeste 0 -- -- 72
2020-01-16 09:00:00 3.5 5 Nordeste 21 Sur 0 -- -- 60
2020-01-16 08:00:00 6.2 6 Este 27 Sur 0 -- -- 46
2020-01-16 07:00:00 8 9 Sudeste 19 Sudeste 0 -- -- 44
2020-01-16 06:00:00 -0.5 4 Sudeste 13 Oeste 0 -- -- 83
2020-01-16 05:00:00 -2.1 2 Sudoeste 8 Sudoeste 0 -- -- 90
2020-01-16 04:00:00 -1.9 0 Calma 5 Oeste 0 -- -- 87
2020-01-16 03:00:00 -0.3 0 Calma 13 Sur 0 -- -- 79
2020-01-16 02:00:00 1.9 10 Sur 19 Sudoeste 0 -- -- 69
2020-01-16 01:00:00 0.7 6 Sur 12 Sudoeste 0 -- -- 75
2020-01-16 00:00:00 0.1 6 Sudoeste 10 Sudoeste 0 -- -- 81
2020-01-15 23:00:00 2.5 2 Sudoeste 21 Sudoeste 0 -- -- 70
2020-01-15 22:00:00 3.6 13 Sudoeste 21 Sudoeste 0 -- -- 64
2020-01-15 21:00:00 3.2 6 Sur 12 Sudoeste 0 -- -- 68
2020-01-15 20:00:00 2.4 0 Calma 10 Sudoeste 0 -- -- 73
2020-01-15 19:00:00 3.2 3 Sudoeste 8 Sudoeste 0 -- -- 72
2020-01-15 18:00:00 6 0 Calma 6 Sudeste 0 -- -- 60
2020-01-15 17:00:00 11.3 3 Sudeste 15 Nordeste 0 -- -- 38
2020-01-15 16:00:00 11.7 2 Este 14 Sudoeste 0 -- -- 47
2020-01-15 15:00:00 15.4 10 Sudoeste 14 Sudoeste 0 -- -- 36
2020-01-15 14:00:00 14.6 0 Calma 7 Norte 0 -- -- 35
2020-01-15 13:00:00 11.3 3 Sur 6 Nordeste 0 -- -- 43
2020-01-15 12:00:00 3.8 2 Este 4 Norte 0 -- -- 65
2020-01-15 11:00:00 -0.5 0 Calma 6 Noroeste 0 -- -- 80
2020-01-15 10:00:00 -0.8 2 Sur 7 Sudoeste 0 -- -- 80
2020-01-15 09:00:00 -1 2 Sur 7 Sur 0 -- -- 80
2020-01-15 08:00:00 -0.1 4 Nordeste 15 Sudoeste 0 -- -- 74
2020-01-15 07:00:00 -0.5 3 Noroeste 10 Sudoeste 0 -- -- 75
2020-01-15 06:00:00 -0.3 4 Sur 11 Oeste 0 -- -- 75
2020-01-15 05:00:00 -0.7 2 Sudoeste 9 Oeste 0 -- -- 77
2020-01-15 04:00:00 0.3 3 Sur 9 Noroeste 0 -- -- 72
2020-01-15 03:00:00 2.2 0 Calma 9 Noroeste 0 -- -- 64
2020-01-15 02:00:00 3.8 3 Sudeste 11 Norte 0 -- -- 53
2020-01-15 01:00:00 6.2 2 Noroeste 17 Sudoeste 0 -- -- 45
2020-01-15 00:00:00 11.5 10 Sur 33 Sudoeste 0 -- -- 28
2020-01-14 23:00:00 12.2 18 Sur 44 Sudoeste 0 -- -- 23
2020-01-14 22:00:00 12.4 17 Sudoeste 41 Sudoeste 0 -- -- 25
2020-01-14 21:00:00 12.2 22 Sudoeste 42 Sudoeste 0 -- -- 26
2020-01-14 20:00:00 6.4 14 Sudoeste 23 Sudoeste 0 -- -- 40
2020-01-14 19:00:00 2.1 3 Sudoeste 15 Sudoeste 0 -- -- 74
2020-01-14 18:00:00 4 3 Nordeste 12 Sudoeste 0 -- -- 68
2020-01-14 17:00:00 4.9 5 Sudoeste 13 Sudoeste 0 -- -- 68
2020-01-14 16:00:00 6.8 5 Sur 12 Sudoeste 0 -- -- 60
2020-01-14 15:00:00 15.2 5 Sudoeste 8 Sudoeste 0 -- -- 39
2020-01-14 14:00:00 15.1 4 Norte 5 Norte 0 -- -- 27
2020-01-14 13:00:00 12.1 0 Calma 5 Sudoeste 0 -- -- 39
2020-01-14 12:00:00 4.7 0 Calma 5 Sur 0 -- -- 57
2020-01-14 11:00:00 0.8 0 Calma 5 Noroeste 0 -- -- 75
2020-01-14 10:00:00 1 0 Calma 10 Nordeste 0 -- -- 71
2020-01-14 09:00:00 2.7 5 Sur 22 Sudoeste 0 -- -- 55
2020-01-14 08:00:00 1.3 18 Sudoeste 23 Sudoeste 0 -- -- 63
2020-01-14 07:00:00 -1.6 3 Sudoeste 10 Sudoeste 0 -- -- 78
2020-01-14 06:00:00 -2.1 0 Calma 9 Sudoeste 0 -- -- 86
2020-01-14 05:00:00 -1.8 0 Calma 9 Sudoeste 0 -- -- 80
2020-01-14 04:00:00 -0.4 5 Sudoeste 19 Sudoeste 0 -- -- 72
2020-01-14 03:00:00 -0.3 12 Sudoeste 15 Sudoeste 0 -- -- 73
2020-01-14 02:00:00 -1.5 2 Sudoeste 8 Este 0 -- -- 80
2020-01-14 01:00:00 -1.1 3 Sudoeste 9 Sudoeste 0 -- -- 81
2020-01-14 00:00:00 -2.1 4 Sudoeste 8 Sudoeste 0 -- -- 88
2020-01-13 23:00:00 -1.5 0 Calma 8 Sudoeste 0 -- -- 86
2020-01-13 22:00:00 -0.7 4 Sudoeste 9 Sudoeste 0 -- -- 83
2020-01-13 21:00:00 0 4 Sudoeste 10 Sudoeste 0 -- -- 80
2020-01-13 20:00:00 1 3 Sudoeste 14 Sur 0 -- -- 76
2020-01-13 19:00:00 2.7 11 Sur 18 Sur 0 -- -- 71
2020-01-13 18:00:00 5.3 3 Sudeste 17 Sudoeste 0 -- -- 60
2020-01-13 17:00:00 7.1 2 Sur 10 Sudoeste 0 -- -- 64
2020-01-13 16:00:00 10.2 0 Calma 6 Este 0 -- -- 55
2020-01-13 15:00:00 11.8 5 Nordeste 12 Nordeste 0 -- -- 31
2020-01-13 14:00:00 12.5 0 Calma 4 Nordeste 0 -- -- 36
2020-01-13 13:00:00 9.1 0 Calma 8 Nordeste 0 -- -- 48
2020-01-13 12:00:00 3.1 0 Calma 5 Sur 0 -- -- 67
2020-01-13 11:00:00 -0.1 0 Calma 5 Oeste 0 -- -- 78
2020-01-13 10:00:00 -2 0 Calma 5 Este 0 -- -- 78
2020-01-13 09:00:00 -1.5 2 Este 16 Sudoeste 0 -- -- 72
2020-01-13 08:00:00 -1.4 9 Sur 17 Sur 0 -- -- 69
2020-01-13 07:00:00 -1.4 10 Sur 17 Sudoeste 0 -- -- 68
2020-01-13 06:00:00 -1.6 10 Sur 17 Sudoeste 0 -- -- 70
2020-01-13 05:00:00 -2.9 2 Sur 9 Sudoeste 0 -- -- 78
2020-01-13 04:00:00 -1.6 5 Sur 17 Sur 0 -- -- 71
2020-01-13 03:00:00 -3.1 3 Sur 10 Sudoeste 0 -- -- 83
2020-01-13 02:00:00 -3.1 2 Norte 5 Sur 0 -- -- 87
2020-01-13 01:00:00 -1.6 3 Sudoeste 15 Oeste 0 -- -- 78
2020-01-13 00:00:00 -1.2 3 Sur 13 Sudoeste 0 -- -- 76
2020-01-12 23:00:00 -1.6 5 Sur 9 Sudoeste 0 -- -- 84
2020-01-12 22:00:00 -0.3 3 Sudeste 13 Sudoeste 0 -- -- 78
2020-01-12 21:00:00 -0.1 8 Sur 14 Sudoeste 0 -- -- 79
2020-01-12 20:00:00 -0.5 6 Sur 12 Sur 0 -- -- 83
2020-01-12 19:00:00 -0.3 6 Sudoeste 12 Sudoeste 0 -- -- 85
2020-01-12 18:00:00 0.9 3 Sudoeste 12 Sur 0 -- -- 79
2020-01-12 17:00:00 2.1 5 Sur 11 Sudoeste 0 -- -- 74
2020-01-12 16:00:00 3.5 2 Sur 9 Norte 0 -- -- 69
2020-01-12 15:00:00 9.7 4 Nordeste 13 Nordeste 0 -- -- 39
2020-01-12 14:00:00 9.9 3 Nordeste 6 Nordeste 0 -- -- 37
2020-01-12 13:00:00 7.7 0 Calma 6 Nordeste 0 -- -- 47
2020-01-12 12:00:00 0.2 0 Calma 5 Nordeste 0 -- -- 78
2020-01-12 11:00:00 -2.5 0 Calma 5 Nordeste 0 -- -- 81
2020-01-12 10:00:00 -1.5 4 Sur 17 Sudoeste 0 -- -- 74
2020-01-12 09:00:00 -1.8 10 Sudoeste 16 Sur 0 -- -- 73
2020-01-12 08:00:00 -1.6 6 Sudoeste 18 Sudoeste 0 -- -- 71
2020-01-12 07:00:00 -1.8 9 Sur 17 Sur 0 -- -- 74
2020-01-12 06:00:00 -1.9 2 Sur 15 Sudoeste 0 -- -- 74
2020-01-12 05:00:00 -1.3 9 Sur 16 Sudoeste 0 -- -- 73
2020-01-12 04:00:00 -1 6 Sudoeste 24 Oeste 0 -- -- 71
2020-01-12 03:00:00 -1 14 Sudoeste 22 Sudoeste 0 -- -- 74
2020-01-12 02:00:00 -1.9 6 Sur 13 Sudoeste 0 -- -- 80
2020-01-12 01:00:00 -1.1 0 Calma 18 Sudoeste 0 -- -- 78
2020-01-12 00:00:00 -0.6 11 Sudoeste 22 Sudoeste 0 -- -- 77
2020-01-11 23:00:00 -0.8 10 Sudoeste 22 Sudoeste 0 -- -- 80
2020-01-11 22:00:00 -0.8 13 Sudoeste 18 Sudoeste 0 -- -- 83
2020-01-11 21:00:00 -0.8 10 Sur 18 Sudoeste 0 -- -- 85
2020-01-11 20:00:00 -0.4 12 Sudoeste 19 Sudoeste 0 -- -- 84
2020-01-11 19:00:00 0.6 12 Sudoeste 22 Sudoeste 0 -- -- 81
2020-01-11 18:00:00 1 18 Sudoeste 24 Sudoeste 0 -- -- 82
2020-01-11 17:00:00 1.6 9 Sur 21 Sudoeste 0 -- -- 82
2020-01-11 16:00:00 2.2 14 Sudoeste 22 Sur 0 -- -- 76
2020-01-11 15:00:00 6.2 12 Sur 15 Sur 0 -- -- 58
2020-01-11 14:00:00 7.3 3 Sur 6 Sur 0 -- -- 59
2020-01-11 13:00:00 4.5 3 Nordeste 6 Norte 0 -- -- 71
2020-01-11 12:00:00 -0.4 3 Sudeste 5 Sur 0 -- -- 97
2020-01-11 11:00:00 -2.3 0 Calma 6 Norte 0 -- -- 97
2020-01-11 10:00:00 -2.4 0 Calma 7 Sudoeste 0 -- -- 97
2020-01-11 09:00:00 -2.3 2 Sur 14 Sudoeste 0 -- -- 95
2020-01-11 08:00:00 -1.6 9 Sur 18 Sudoeste 0 -- -- 93
2020-01-11 07:00:00 -1.4 13 Sudoeste 18 Sudoeste 0 -- -- 96
2020-01-11 06:00:00 -1.3 8 Sudoeste 17 Sudoeste 0 -- -- 96
2020-01-11 05:00:00 -1 8 Sudoeste 14 Sudoeste 0 -- -- 97
2020-01-11 04:00:00 -0.2 14 Sudoeste 21 Sudoeste 0 -- -- 97
2020-01-11 03:00:00 0.5 13 Sudoeste 18 Sudoeste 0 -- -- 98
2020-01-11 02:00:00 0.5 9 Sudoeste 14 Oeste 0 -- -- 100
2020-01-11 01:00:00 0 0 Calma 12 Sur 0 -- -- 99
2020-01-11 00:00:00 0.6 2 Sudeste 9 Sur 0 -- -- 98
2020-01-10 23:00:00 0.5 0 Calma 6 Sudoeste 0 -- -- 98
2020-01-10 22:00:00 1.2 0 Calma 4 Nordeste 0 -- -- 97
2020-01-10 21:00:00 2.6 0 Calma 3 Noroeste 0 -- -- 97
2020-01-10 20:00:00 3.6 0 Calma 4 Sudoeste 0 -- -- 95
2020-01-10 19:00:00 4.2 0 Calma 5 Este 0 -- -- 94
2020-01-10 18:00:00 5 3 Norte 12 Nordeste 0.2 -- -- 91
2020-01-10 17:00:00 5.1 6 Nordeste 14 Norte 0 -- -- 90
2020-01-10 16:00:00 5.7 5 Nordeste 17 Nordeste 0 -- -- 89
2020-01-10 15:00:00 6.4 3 Norte 10 Norte 0 -- -- 83
2020-01-10 14:00:00 5.9 5 Norte 9 Norte 0 -- -- 89
2020-01-10 13:00:00 5.4 5 Norte 10 Nordeste 0 -- -- 91
2020-01-10 12:00:00 5.1 0 Calma 3 Noroeste 0 -- -- 92
2020-01-10 11:00:00 4.4 0 Calma 5 Este 0 -- -- 96
2020-01-10 10:00:00 3.5 2 Nordeste 5 Noroeste 0 -- -- 99
2020-01-10 09:00:00 2.9 3 Este 7 Sudeste 0 -- -- 98
2020-01-10 08:00:00 3.4 3 Sudeste 5 Sudoeste 0 -- -- 98
2020-01-10 07:00:00 3.4 3 Norte 5 Nordeste 0 -- -- 97
2020-01-10 06:00:00 3.9 0 Calma 5 Sudeste 0 -- -- 98
2020-01-10 05:00:00 4.1 2 Este 3 Este 0 -- -- 97
2020-01-10 04:00:00 4.4 0 Calma 4 Oeste 0 -- -- 95
2020-01-10 03:00:00 5 3 Nordeste 24 Norte -- -- -- 89
2020-01-10 02:00:00 5.5 8 Norte 24 Noroeste 0 -- -- 84
2020-01-10 01:00:00 6.2 12 Norte 22 Norte 0 -- -- 88
2020-01-10 00:00:00 6.7 9 Nordeste 22 Norte 0 -- -- 83
2020-01-09 23:00:00 6.8 10 Norte 24 Norte 0 -- -- 85
2020-01-09 22:00:00 8.2 12 Norte 31 Noroeste 0 -- -- 81
2020-01-09 21:00:00 5.1 7 Nordeste 12 Norte 0 -- -- 87
2020-01-09 20:00:00 4.3 0 Calma 5 Oeste 0 -- -- 86
2020-01-09 19:00:00 6.7 0 Calma 8 Noroeste 0 -- -- 75
2020-01-09 18:00:00 8.7 3 Nordeste 14 Norte 0 -- -- 69
2020-01-09 17:00:00 9 4 Norte 13 Sudoeste 0 -- -- 72
2020-01-09 16:00:00 9.6 9 Sudoeste 15 Sudoeste 0 -- -- 67
2020-01-09 15:00:00 15.2 5 Sudoeste 9 Sudoeste 0 -- -- 52
2020-01-09 14:00:00 15.8 3 Este 6 Nordeste 0 -- -- 47
2020-01-09 13:00:00 13.5 2 Este 6 Sur 0 -- -- 54
2020-01-09 12:00:00 7.2 3 Sur 6 Nordeste 0 -- -- 82
2020-01-09 11:00:00 5.5 3 Sudoeste 6 Nordeste 0 -- -- 84
2020-01-09 10:00:00 3.9 3 Sur 9 Norte 0 -- -- 93
2020-01-09 09:00:00 1.9 2 Norte 9 Sur 0 -- -- 94
2020-01-09 08:00:00 1.8 0 Calma 7 Sudoeste 0 -- -- 92
2020-01-09 07:00:00 3.1 5 Sur 14 Sur 0 -- -- 88
2020-01-09 06:00:00 3.5 4 Sudeste 14 Sur 0 -- -- 88
2020-01-09 05:00:00 3.7 10 Sur 19 Sur 0 -- -- 87
2020-01-09 04:00:00 1.8 11 Sur 14 Sur 0 -- -- 97
2020-01-09 03:00:00 1.8 4 Sudoeste 16 Sur 0 -- -- 92
2020-01-09 02:00:00 2.7 14 Sur 18 Sudoeste 0 -- -- 93
2020-01-09 01:00:00 1.6 0 Calma 8 Sur 0 -- -- 93
2020-01-09 00:00:00 2.3 0 Calma 11 Sur 0 -- -- 92
2020-01-08 23:00:00 2.5 2 Sur 11 Sur 0 -- -- 92
2020-01-08 22:00:00 2.6 4 Sur 11 Sudoeste 0 -- -- 91
2020-01-08 21:00:00 3.3 0 Calma 9 Sur 0 -- -- 88
2020-01-08 20:00:00 4.5 9 Sur 17 Sudoeste 0 -- -- 85
2020-01-08 19:00:00 4 6 Sudoeste 10 Sur 0.2 -- -- 87
2020-01-08 18:00:00 5.3 0 Calma 12 Sur 0 -- -- 83
2020-01-08 17:00:00 6.3 5 Sudoeste 12 Sudoeste 0 -- -- 79
2020-01-08 16:00:00 8 5 Sudoeste 10 Sudoeste 0 -- -- 72
2020-01-08 15:00:00 13.5 6 Sudoeste 11 Sudoeste 0 -- -- 54
2020-01-08 14:00:00 14.6 3 Norte 6 Norte 0 -- -- 47
2020-01-08 13:00:00 12.9 4 Nordeste 6 Nordeste 0 -- -- 52
2020-01-08 12:00:00 8.5 0 Calma 8 Nordeste 0 -- -- 69
2020-01-08 11:00:00 6.8 3 Nordeste 9 Nordeste 0 -- -- 75
2020-01-08 10:00:00 5.2 8 Oeste 24 Sudoeste 0 -- -- 79
2020-01-08 09:00:00 2.7 3 Sudeste 10 Sudoeste 0 -- -- 88
2020-01-08 08:00:00 2.6 3 Sudoeste 13 Sur 0 -- -- 86
2020-01-08 07:00:00 2 6 Sudoeste 18 Sudoeste 0 -- -- 88
2020-01-08 06:00:00 -0.3 6 Sudoeste 10 Sudoeste 0 -- -- 92
2020-01-08 05:00:00 0.8 0 Calma 12 Sudoeste 0 -- -- 86
2020-01-08 04:00:00 1.9 7 Sur 17 Sur 0 -- -- 81
2020-01-08 03:00:00 0.4 4 Sur 12 Sudoeste 0 -- -- 83
2020-01-08 02:00:00 0.1 5 Sudoeste 10 Sudoeste 0 -- -- 83
2020-01-08 01:00:00 -0.4 6 Sur 9 Sudoeste 0 -- -- 84
2020-01-08 00:00:00 -0.9 3 Sur 7 Sudoeste 0 -- -- 84
2020-01-07 23:00:00 -0.1 0 Calma 10 Sudoeste 0 -- -- 83
2020-01-07 22:00:00 0.8 5 Sur 9 Sur 0 -- -- 77
2020-01-07 21:00:00 1.7 2 Sudoeste 14 Sur 0 -- -- 75
2020-01-07 20:00:00 2.6 8 Sur 15 Sudoeste 0 -- -- 72
2020-01-07 19:00:00 1.8 5 Sudoeste 12 Sudoeste 0 -- -- 78
2020-01-07 18:00:00 2.8 3 Sudoeste 10 Sur 0 -- -- 75
2020-01-07 17:00:00 3.3 0 Calma 9 Sudoeste 0 -- -- 74
2020-01-07 16:00:00 5 4 Sur 12 Sudoeste 0 -- -- 66
2020-01-07 15:00:00 9.9 3 Noroeste 11 Nordeste 0 -- -- 48
2020-01-07 14:00:00 9.6 4 Norte 10 Nordeste 0 -- -- 47
2020-01-07 13:00:00 6.5 5 Nordeste 12 Nordeste 0 -- -- 54
2020-01-07 12:00:00 1.5 0 Calma 3 Norte 0 -- -- 83
2020-01-07 11:00:00 -1.9 0 Calma 3 Sudoeste 0 -- -- 92
2020-01-07 10:00:00 -2.4 3 Norte 5 Norte 0 -- -- 93
2020-01-07 09:00:00 -2.4 3 Sur 9 Sur 0 -- -- 90
2020-01-07 08:00:00 -2.3 0 Calma 9 Sudoeste 0 -- -- 89
2020-01-07 07:00:00 -2.4 0 Calma 8 Sudoeste 0 -- -- 91
2020-01-07 06:00:00 -3.3 0 Calma 9 Sudoeste 0 -- -- 95
2020-01-07 05:00:00 -2.7 0 Calma 10 Sudoeste 0 -- -- 93
2020-01-07 04:00:00 -2.4 4 Sudoeste 7 Sudeste 0 -- -- 91
2020-01-07 03:00:00 -1.5 2 Sur 13 Sudoeste 0 -- -- 89
2020-01-07 02:00:00 -1.5 2 Nordeste 8 Sudoeste 0 -- -- 88
2020-01-07 01:00:00 -0.5 4 Sudoeste 9 Sudoeste 0 -- -- 86
2020-01-07 00:00:00 1.8 2 Nordeste 25 Sudoeste 0 -- -- 76
2020-01-06 23:00:00 2.2 20 Sudoeste 31 Sudoeste 0 -- -- 74
2020-01-06 22:00:00 0.4 7 Sudoeste 15 Sudoeste 0 -- -- 84
2020-01-06 21:00:00 0.9 2 Sur 13 Sudoeste 0 -- -- 83
2020-01-06 20:00:00 1.5 2 Sur 13 Sudoeste 0 -- -- 79
2020-01-06 19:00:00 1.4 3 Sudoeste 9 Sudoeste 0 -- -- 81
2020-01-06 18:00:00 2.9 4 Sudoeste 8 Sudoeste 0 -- -- 76
2020-01-06 17:00:00 5 0 Calma 4 Sudoeste 0 -- -- 68
2020-01-06 16:00:00 8 0 Calma 8 Sudoeste 0 -- -- 55
2020-01-06 15:00:00 14.5 5 Sudoeste 9 Norte 0 -- -- 36
2020-01-06 14:00:00 15.3 2 Noroeste 8 Norte 0 -- -- 41
2020-01-06 13:00:00 12.3 3 Norte 5 Norte 0 -- -- 49
2020-01-06 12:00:00 4.6 0 Calma 4 Norte 0 -- -- 77
2020-01-06 11:00:00 1.6 0 Calma 4 Sudoeste 0 -- -- 84
2020-01-06 10:00:00 3 3 Nordeste 17 Sur 0 -- -- 75